createdAt,value
2022-08-27T00:01:23.367Z,7.70
2022-08-27T00:03:51.562Z,8.82
2022-08-27T00:06:19.991Z,8.85
2022-08-27T00:08:48.435Z,8.48
2022-08-27T00:11:16.136Z,7.70
2022-08-27T00:13:43.557Z,8.35
2022-08-27T00:16:12.809Z,7.72
2022-08-27T00:18:40.827Z,8.93
2022-08-27T00:21:08.746Z,8.07
2022-08-27T00:23:37.329Z,8.15
2022-08-27T00:26:06.583Z,8.25
2022-08-27T00:28:34.856Z,8.40
2022-08-27T00:31:02.236Z,8.10
2022-08-27T00:33:30.814Z,8.63
2022-08-27T00:35:58.236Z,8.20
2022-08-27T00:38:25.493Z,8.32
2022-08-27T00:40:53.658Z,8.30
2022-08-27T00:43:26.761Z,8.27
2022-08-27T00:45:59.251Z,7.93
2022-08-27T00:48:30.793Z,8.00
2022-08-27T00:50:58.201Z,8.73
2022-08-27T00:53:29.862Z,8.77
2022-08-27T00:56:21.160Z,8.25
2022-08-27T00:58:52.077Z,7.75
2022-08-27T01:01:25.726Z,8.18
2022-08-27T01:03:56.587Z,7.75
2022-08-27T01:06:28.754Z,7.60
2022-08-27T01:09:02.861Z,8.03
2022-08-27T01:11:30.142Z,8.68
2022-08-27T01:14:00.508Z,8.02
2022-08-27T01:16:36.053Z,8.05
2022-08-27T01:19:11.112Z,8.55
2022-08-27T01:22:05.820Z,8.50
2022-08-27T01:24:45.779Z,8.77
2022-08-27T01:27:19.710Z,8.68
2022-08-27T01:29:47.086Z,8.95
2022-08-27T01:32:20.436Z,8.38
2022-08-27T01:34:48.119Z,8.20
2022-08-27T01:37:23.739Z,8.63
2022-08-27T01:39:52.710Z,8.30
2022-08-27T01:42:24.334Z,8.32
2022-08-27T01:44:55.730Z,8.70
2022-08-27T01:47:30.609Z,7.47
2022-08-27T01:49:59.723Z,8.45
2022-08-27T01:52:29.527Z,8.57
2022-08-27T01:54:57.177Z,8.98
2022-08-27T01:57:26.258Z,8.55
2022-08-27T01:59:58.309Z,7.97
2022-08-27T02:02:27.140Z,8.93
2022-08-27T02:04:54.344Z,9.20
2022-08-27T02:07:21.697Z,8.68
2022-08-27T02:09:48.762Z,9.15
2022-08-27T02:12:15.870Z,8.80
2022-08-27T02:14:43.270Z,8.57
2022-08-27T02:17:10.953Z,9.20
2022-08-27T02:19:38.609Z,8.85
2022-08-27T02:22:05.783Z,7.85
2022-08-27T02:24:32.894Z,8.93
2022-08-27T02:27:00.086Z,9.07
2022-08-27T02:29:27.944Z,9.43
2022-08-27T02:31:55.239Z,9.10
2022-08-27T02:34:23.548Z,9.07
2022-08-27T02:36:50.743Z,8.40
2022-08-27T02:39:17.788Z,8.63
2022-08-27T02:41:44.963Z,8.82
2022-08-27T02:44:12.327Z,8.60
2022-08-27T02:46:41.967Z,9.50
2022-08-27T02:49:09.802Z,9.27
2022-08-27T02:51:37.862Z,8.32
2022-08-27T02:54:06.332Z,8.38
2022-08-27T02:56:37.869Z,8.18
2022-08-27T02:59:05.394Z,8.48
2022-08-27T03:01:32.623Z,9.30
2022-08-27T03:03:59.837Z,8.88
2022-08-27T03:06:28.739Z,8.38
2022-08-27T03:08:55.832Z,9.38
2022-08-27T03:11:23.758Z,7.93
2022-08-27T03:13:51.486Z,8.52
2022-08-27T03:16:19.132Z,8.93
2022-08-27T03:18:46.234Z,8.52
2022-08-27T03:21:19.685Z,7.68
2022-08-27T03:23:46.942Z,9.35
2022-08-27T03:26:14.000Z,8.70
2022-08-27T03:28:41.535Z,8.50
2022-08-27T03:31:14.895Z,8.63
2022-08-27T03:33:43.748Z,8.40
2022-08-27T03:36:10.845Z,9.05
2022-08-27T03:38:38.545Z,8.70
2022-08-27T03:41:06.496Z,8.43
2022-08-27T03:43:33.789Z,8.75
2022-08-27T03:46:02.504Z,8.20
2022-08-27T03:48:33.246Z,8.38
2022-08-27T03:51:08.538Z,9.48
2022-08-27T03:53:38.063Z,8.90
2022-08-27T03:56:06.595Z,8.38
2022-08-27T03:58:35.092Z,8.90
2022-08-27T04:01:02.571Z,8.55
2022-08-27T04:03:29.852Z,8.32
2022-08-27T04:05:58.617Z,8.70
2022-08-27T04:08:26.837Z,9.18
2022-08-27T04:10:55.203Z,9.07
2022-08-27T04:13:23.710Z,9.32
2022-08-27T04:15:52.750Z,9.38
2022-08-27T04:18:19.859Z,9.10
2022-08-27T04:20:49.108Z,8.05
2022-08-27T04:23:17.223Z,8.93
2022-08-27T04:25:45.363Z,9.55
2022-08-27T04:28:14.967Z,9.77
2022-08-27T04:30:47.248Z,10.25
2022-08-27T04:33:14.882Z,9.23
2022-08-27T04:35:42.923Z,9.80
2022-08-27T04:38:10.223Z,10.20
2022-08-27T04:40:56.887Z,9.60
2022-08-27T04:43:24.132Z,10.10
2022-08-27T04:45:51.115Z,9.73
2022-08-27T04:48:19.899Z,9.05
2022-08-27T04:50:47.956Z,9.30
2022-08-27T04:53:17.374Z,9.23
2022-08-27T04:55:47.000Z,9.63
2022-08-27T04:58:15.327Z,9.25
2022-08-27T05:00:50.906Z,9.88
2022-08-27T05:03:20.159Z,10.07
2022-08-27T05:05:50.049Z,9.32
2022-08-27T05:08:18.111Z,9.15
2022-08-27T05:10:47.895Z,9.13
2022-08-27T05:13:16.419Z,9.48
2022-08-27T05:15:43.483Z,9.82
2022-08-27T05:18:10.854Z,9.73
2022-08-27T05:20:47.078Z,9.23
2022-08-27T05:23:17.392Z,10.10
2022-08-27T05:25:47.519Z,9.65
2022-08-27T05:28:16.931Z,10.30
2022-08-27T05:30:52.356Z,10.07
2022-08-27T05:33:25.753Z,9.60
2022-08-27T05:35:57.636Z,9.38
2022-08-27T05:38:27.294Z,7.85
2022-08-27T05:41:06.871Z,9.38
2022-08-27T05:43:34.319Z,9.52
2022-08-27T05:46:07.907Z,9.32
2022-08-27T05:48:36.670Z,10.00
2022-08-27T05:51:09.940Z,9.75
2022-08-27T05:53:38.083Z,10.02
2022-08-27T05:56:05.918Z,9.70
2022-08-27T05:58:51.803Z,9.85
2022-08-27T06:01:22.349Z,9.27
2022-08-27T06:03:49.651Z,8.77
2022-08-27T06:06:16.859Z,9.95
2022-08-27T06:08:44.126Z,9.52
2022-08-27T06:11:11.959Z,9.35
2022-08-27T06:13:39.300Z,8.70
2022-08-27T06:16:16.577Z,8.82
2022-08-27T06:18:46.748Z,9.70
2022-08-27T06:21:14.972Z,9.82
2022-08-27T06:23:42.078Z,9.38
2022-08-27T06:26:16.078Z,9.05
2022-08-27T06:28:44.638Z,8.52
2022-08-27T06:31:20.403Z,9.02
2022-08-27T06:33:47.979Z,8.75
2022-08-27T06:36:17.805Z,8.10
2022-08-27T06:38:45.246Z,8.35
2022-08-27T06:41:23.771Z,8.20
2022-08-27T06:43:52.322Z,8.90
2022-08-27T06:46:22.454Z,8.73
2022-08-27T06:48:53.918Z,7.70
2022-08-27T06:51:26.920Z,8.07
2022-08-27T06:53:55.985Z,7.45
2022-08-27T06:56:23.195Z,6.43
2022-08-27T06:58:55.645Z,6.78
2022-08-27T07:01:35.130Z,7.47
2022-08-27T07:04:05.620Z,7.20
2022-08-27T07:06:34.343Z,6.50
2022-08-27T07:09:01.491Z,6.88
2022-08-27T07:11:32.290Z,5.90
2022-08-27T07:14:00.036Z,7.20
2022-08-27T07:16:28.726Z,6.63
2022-08-27T07:19:00.976Z,5.95
2022-08-27T07:21:31.650Z,6.05
2022-08-27T07:24:00.144Z,5.75
2022-08-27T07:26:28.669Z,5.82
2022-08-27T07:28:55.688Z,6.80
2022-08-27T07:31:23.973Z,6.35
2022-08-27T07:33:53.128Z,6.68
2022-08-27T07:36:24.794Z,6.20
2022-08-27T07:39:00.816Z,5.93
2022-08-27T07:41:31.816Z,6.28
2022-08-27T07:44:26.176Z,5.40
2022-08-27T07:46:56.110Z,5.78
2022-08-27T07:49:23.992Z,5.93
2022-08-27T07:51:51.595Z,6.70
2022-08-27T07:54:21.511Z,6.15
2022-08-27T07:56:55.502Z,6.35
2022-08-27T07:59:25.160Z,6.63
2022-08-27T08:01:54.304Z,6.55
2022-08-27T08:04:22.974Z,6.43
2022-08-27T08:06:51.178Z,6.55
2022-08-27T08:09:18.730Z,6.88
2022-08-27T08:11:46.367Z,6.68
2022-08-27T08:14:13.491Z,6.15
2022-08-27T08:16:40.606Z,6.88
2022-08-27T08:19:09.471Z,5.55
2022-08-27T08:21:37.073Z,5.88
2022-08-27T08:24:04.516Z,5.88
2022-08-27T08:26:31.702Z,5.88
2022-08-27T08:29:00.753Z,6.10
2022-08-27T08:31:27.871Z,5.88
2022-08-27T08:33:55.062Z,5.57
2022-08-27T08:36:22.197Z,6.00
2022-08-27T08:38:50.799Z,6.35
2022-08-27T08:41:44.267Z,6.60
2022-08-27T08:44:31.379Z,6.05
2022-08-27T08:47:15.923Z,6.43
2022-08-27T08:50:04.583Z,6.68
2022-08-27T08:52:34.804Z,5.45
2022-08-27T08:55:14.429Z,6.22
2022-08-27T08:57:50.570Z,7.05
2022-08-27T09:00:17.993Z,6.10
2022-08-27T09:02:55.542Z,6.13
2022-08-27T09:05:27.135Z,5.88
2022-08-27T09:08:30.921Z,6.47
2022-08-27T09:10:59.871Z,6.40
2022-08-27T09:13:32.994Z,5.35
2022-08-27T09:16:03.990Z,5.57
2022-08-27T09:18:35.402Z,6.03
2022-08-27T09:21:17.394Z,6.00
2022-08-27T09:24:36.286Z,6.13
2022-08-27T09:27:04.211Z,5.85
2022-08-27T09:29:31.297Z,5.60
2022-08-27T09:32:01.613Z,6.40
2022-08-27T09:34:36.399Z,5.82
2022-08-27T09:37:10.146Z,5.97
2022-08-27T09:39:56.554Z,5.50
2022-08-27T09:42:26.312Z,5.85
2022-08-27T09:44:54.895Z,5.68
2022-08-27T09:47:22.650Z,5.38
2022-08-27T09:50:00.481Z,4.90
2022-08-27T09:52:46.169Z,5.00
2022-08-27T09:55:14.646Z,5.07
2022-08-27T09:57:42.694Z,5.25
2022-08-27T10:00:16.741Z,5.07
2022-08-27T10:02:53.095Z,5.10
2022-08-27T10:05:56.905Z,4.55
2022-08-27T10:08:38.637Z,5.00
2022-08-27T10:11:17.544Z,5.23
2022-08-27T10:14:06.434Z,5.53
2022-08-27T10:16:42.332Z,4.78
2022-08-27T10:19:26.401Z,5.18
2022-08-27T10:22:12.061Z,5.40
2022-08-27T10:25:10.277Z,8.15
2022-08-27T10:28:02.435Z,5.32
2022-08-27T10:30:58.882Z,5.30
2022-08-27T10:33:31.882Z,5.10
2022-08-27T10:36:03.875Z,6.00
2022-08-27T10:38:43.790Z,5.20
2022-08-27T10:41:25.655Z,5.53
2022-08-27T10:44:10.367Z,4.60
2022-08-27T10:46:50.011Z,4.55
2022-08-27T10:49:26.672Z,4.25
2022-08-27T10:52:15.040Z,4.70
2022-08-27T10:54:50.903Z,5.50
2022-08-27T10:57:40.045Z,4.82
2022-08-27T11:00:19.968Z,4.70
2022-08-27T11:03:07.509Z,4.72
2022-08-27T11:05:40.745Z,5.07
2022-08-27T11:08:29.121Z,5.00
2022-08-27T11:11:51.742Z,4.53
2022-08-27T11:14:01.131Z,4.30
2022-08-27T11:16:45.973Z,5.60
2022-08-27T11:19:18.905Z,4.68
2022-08-27T11:22:17.168Z,4.40
2022-08-27T11:25:28.507Z,4.78
2022-08-27T11:27:58.170Z,6.38
2022-08-27T11:31:06.747Z,4.93
2022-08-27T11:33:45.470Z,4.78
2022-08-27T11:36:35.476Z,4.20
2022-08-27T11:39:19.801Z,4.28
2022-08-27T11:41:56.327Z,4.03
2022-08-27T11:44:26.816Z,7.18
2022-08-27T11:46:57.993Z,4.55
2022-08-27T11:49:36.900Z,4.55
2022-08-27T11:52:09.756Z,4.93
2022-08-27T11:54:52.248Z,4.30
2022-08-27T11:57:30.405Z,4.07
2022-08-27T11:59:57.854Z,4.20
2022-08-27T12:02:29.431Z,4.38
2022-08-27T12:05:33.565Z,4.40
2022-08-27T12:08:24.111Z,16.52
2022-08-27T12:11:15.460Z,4.05
2022-08-27T12:13:42.618Z,4.20
2022-08-27T12:16:18.590Z,3.88
2022-08-27T12:18:45.700Z,4.05
2022-08-27T12:21:29.781Z,4.20
2022-08-27T12:24:08.782Z,4.18
2022-08-27T12:26:39.495Z,4.25
2022-08-27T12:29:27.722Z,4.32
2022-08-27T12:32:17.581Z,3.97
2022-08-27T12:34:59.506Z,4.03
2022-08-27T12:37:31.049Z,4.70
2022-08-27T12:40:02.631Z,4.07
2022-08-27T12:42:29.771Z,4.30
2022-08-27T12:44:58.179Z,3.88
2022-08-27T12:47:26.172Z,4.55
2022-08-27T12:49:59.035Z,3.58
2022-08-27T12:53:03.891Z,4.35
2022-08-27T12:56:00.184Z,4.18
2022-08-27T12:58:51.969Z,4.30
2022-08-27T13:03:56.626Z,4.03
2022-08-27T13:06:30.619Z,4.72
